Time;durP1;ratioP1;P1;durP2;ratioP2;P2;SDS_P1;SDS_P2;PMS_P1;PMS_P2;Temp;Humidity;BMP_temperature;BMP_pressure;BME280_temperature;BME280_humidity;BME280_pressure;Samples;Min_cycle;Max_cycle;Signal;HPM_P1;HPM_P2
2022/08/04 00:00:04;;;;;;;;;;;;;;;;;;2115059;28;20016;-45
2022/08/04 00:01:04;;;;;;;;;;;;;;;;;;2114966;28;20262;-46
2022/08/04 00:02:05;;;;;;;;;;;;;;;;;;2115001;28;19972;-47
2022/08/04 00:03:06;;;;;;;;;;;;;;;;;;2115166;28;19924;-46
2022/08/04 00:04:07;;;;;;;;;;;;;;;;;;2115079;28;19924;-45
2022/08/04 00:05:08;;;;;;;;;;;;;;;;;;2115031;28;20333;-46
2022/08/04 00:06:09;;;;;;;;;;;;;;;;;;2115096;28;19931;-44
2022/08/04 00:07:09;;;;;;;;;;;;;;;;;;2114902;28;19935;-44
2022/08/04 00:08:10;;;;;;;;;;;;;;;;;;2114994;28;19931;-45
2022/08/04 00:09:11;;;;;;;;;;;;;;;;;;2115001;28;19923;-47
2022/08/04 00:10:12;;;;;;;;;;;;;;;;;;2114912;28;20453;-44
2022/08/04 00:11:13;;;;;;;;;;;;;;;;;;2112342;28;19927;-45
2022/08/04 00:12:15;;;;;;;;;;;;;;;;;;2106604;28;19974;-47
2022/08/04 00:13:16;;;;;;;;;;;;;;;;;;2106160;28;20327;-45
2022/08/04 00:14:17;;;;;;;;;;;;;;;;;;2106447;28;19930;-46
2022/08/04 00:15:18;;;;;;;;;;;;;;;;;;2106506;28;20018;-46
2022/08/04 00:16:19;;;;;;;;;;;;;;;;;;2106416;28;20040;-45
2022/08/04 00:17:20;;;;;;;;;;;;;;;;;;2106334;28;19962;-44
2022/08/04 00:18:21;;;;;;;;;;;;;;;;;;2106306;28;20345;-44
2022/08/04 00:19:22;;;;;;;;;;;;;;;;;;2106416;28;19931;-46
2022/08/04 00:20:23;;;;;;;;;;;;;;;;;;2106541;28;20412;-46
2022/08/04 00:21:24;;;;;;;;;;;;;;;;;;2106329;28;19931;-48
2022/08/04 00:22:24;;;;;;;;;;;;;;;;;;2106418;28;20007;-45
2022/08/04 00:23:25;;;;;;;;;;;;;;;;;;2106546;28;20361;-45
2022/08/04 00:24:26;;;;;;;;;;;;;;;;;;2106456;28;20010;-45
2022/08/04 00:25:27;;;;;;;;;;;;;;;;;;2106570;28;19924;-45
2022/08/04 00:26:28;;;;;;;;;;;;;;;;;;2106377;28;19931;-45
2022/08/04 00:27:29;;;;;;;;;;;;;;;;;;2106373;28;20015;-48
2022/08/04 00:28:29;;;;;;;;;;;;;;;;;;2106528;28;19971;-45
2022/08/04 00:29:30;;;;;;;;;;;;;;;;;;2106318;28;19924;-45
2022/08/04 00:30:31;;;;;;;;;;;;;;;;;;2106653;28;19924;-46
2022/08/04 00:31:32;;;;;;;;;;;;;;;;;;2113205;28;20020;-47
2022/08/04 00:32:53;;;;;;;;;;;;;;;;;;2106278;28;19924;-46
2022/08/04 00:33:54;;;;;;;;;;;;;;;;;;2106373;28;19927;-46
2022/08/04 00:34:55;;;;;;;;;;;;;;;;;;2106358;28;20361;-47
2022/08/04 00:35:55;;;;;;;;;;;;;;;;;;2106328;28;19925;-46
2022/08/04 00:36:57;;;;;;;;;;;;;;;;;;2106348;28;20015;-46
2022/08/04 00:37:57;;;;;;;;;;;;;;;;;;2106425;28;19924;-46
2022/08/04 00:38:59;;;;;;;;;;;;;;;;;;2106263;28;19932;-46
2022/08/04 00:40:00;;;;;;;;;;;;;;;;;;2106310;28;20401;-46
2022/08/04 00:41:01;;;;;;;;;;;;;;;;;;2106316;28;19928;-46
2022/08/04 00:42:02;;;;;;;;;;;;;;;;;;2106144;28;20419;-46
2022/08/04 00:43:03;;;;;;;;;;;;;;;;;;2106292;28;20334;-46
2022/08/04 00:44:04;;;;;;;;;;;;;;;;;;2106308;28;19924;-46
2022/08/04 00:45:04;;;;;;;;;;;;;;;;;;2106193;28;20026;-46
2022/08/04 00:46:05;;;;;;;;;;;;;;;;;;2106218;28;19931;-46
2022/08/04 00:47:17;;;;;;;;;;;;;;;;;;2106167;28;19928;-47
2022/08/04 00:48:18;;;;;;;;;;;;;;;;;;2106356;28;20011;-46
2022/08/04 00:49:18;;;;;;;;;;;;;;;;;;2106221;28;19924;-46
2022/08/04 00:50:19;;;;;;;;;;;;;;;;;;2106351;28;20377;-46
2022/08/04 00:51:20;;;;;;;;;;;;;;;;;;2106182;28;20377;-46
2022/08/04 00:52:21;;;;;;;;;;;;;;;;;;2106174;28;19970;-47
2022/08/04 00:53:33;;;;;;;;;;;;;;;;;;2106395;28;19931;-47
2022/08/04 00:54:34;;;;;;;;;;;;;;;;;;2106168;28;20363;-47
2022/08/04 00:55:34;;;;;;;;;;;;;;;;;;2106484;28;20018;-47
2022/08/04 00:56:35;;;;;;;;;;;;;;;;;;2106201;28;20388;-47
2022/08/04 00:57:36;;;;;;;;;;;;;;;;;;2106355;28;20280;-47
2022/08/04 00:58:37;;;;;;;;;;;;;;;;;;2106189;28;19931;-46
2022/08/04 00:59:38;;;;;;;;;;;;;;;;;;2106263;28;20285;-46
2022/08/04 01:00:39;;;;;;;;;;;;;;;;;;2106316;28;19924;-45
2022/08/04 01:01:40;;;;;;;;;;;;;;;;;;2106125;28;19928;-46
2022/08/04 01:02:41;;;;;;;;;;;;;;;;;;2106272;28;20030;-46
2022/08/04 01:03:41;;;;;;;;;;;;;;;;;;2106165;28;19999;-46
2022/08/04 01:04:42;;;;;;;;;;;;;;;;;;2106421;28;20014;-45
2022/08/04 01:05:43;;;;;;;;;;;;;;;;;;2106086;28;20049;-44
2022/08/04 01:06:44;;;;;;;;;;;;;;;;;;2106190;28;20065;-44
2022/08/04 01:07:45;;;;;;;;;;;;;;;;;;2106182;28;19967;-44
2022/08/04 01:08:46;;;;;;;;;;;;;;;;;;2106242;28;19931;-44
2022/08/04 01:09:47;;;;;;;;;;;;;;;;;;2106235;28;20387;-44
2022/08/04 01:10:48;;;;;;;;;;;;;;;;;;2106171;28;19924;-44
2022/08/04 01:11:48;;;;;;;;;;;;;;;;;;2113162;28;19923;-44
2022/08/04 01:12:57;;;;;;;;;;;;;;;;;;2114566;28;20017;-44
2022/08/04 01:13:58;;;;;;;;;;;;;;;;;;2114669;28;19928;-45
2022/08/04 01:14:59;;;;;;;;;;;;;;;;;;2114642;28;20008;-44
2022/08/04 01:16:00;;;;;;;;;;;;;;;;;;2114704;28;20056;-45
2022/08/04 01:17:01;;;;;;;;;;;;;;;;;;2114618;28;19931;-44
2022/08/04 01:18:02;;;;;;;;;;;;;;;;;;2114828;28;19935;-45
2022/08/04 01:19:03;;;;;;;;;;;;;;;;;;2114427;28;19927;-45
2022/08/04 01:20:05;;;;;;;;;;;;;;;;;;2114568;28;19924;-44
2022/08/04 01:21:06;;;;;;;;;;;;;;;;;;2114311;28;20288;-45
2022/08/04 01:22:07;;;;;;;;;;;;;;;;;;2114598;28;19923;-46
2022/08/04 01:23:08;;;;;;;;;;;;;;;;;;2114457;28;20010;-44
2022/08/04 01:24:09;;;;;;;;;;;;;;;;;;2114573;28;19945;-44
2022/08/04 01:25:10;;;;;;;;;;;;;;;;;;2115430;28;19928;-44
2022/08/04 01:26:11;;;;;;;;;;;;;;;;;;2116058;28;20082;-45
2022/08/04 01:27:32;;;;;;;;;;;;;;;;;;2115944;28;19927;-46
2022/08/04 01:28:33;;;;;;;;;;;;;;;;;;2115872;28;19927;-45
2022/08/04 01:29:34;;;;;;;;;;;;;;;;;;2116045;28;20385;-44
2022/08/04 01:30:44;;;;;;;;;;;;;;;;;;2115998;28;20355;-45
2022/08/04 01:31:45;;;;;;;;;;;;;;;;;;2115954;28;19931;-45
2022/08/04 01:32:46;;;;;;;;;;;;;;;;;;2115925;28;20403;-46
2022/08/04 01:33:47;;;;;;;;;;;;;;;;;;2116096;28;19945;-44
2022/08/04 01:34:59;;;;;;;;;;;;;;;;;;2115986;28;20023;-45
2022/08/04 01:35:59;;;;;;;;;;;;;;;;;;2116102;28;19924;-44
2022/08/04 01:37:00;;;;;;;;;;;;;;;;;;2115765;28;20309;-44
2022/08/04 01:38:01;;;;;;;;;;;;;;;;;;2115960;28;19928;-44
2022/08/04 01:39:39;;;;;;;;;;;;;;;;;;2115986;28;20010;-45
2022/08/04 01:40:23;;;;;;;;;;;;;;;;;;2116118;28;19923;-44
2022/08/04 01:41:24;;;;;;;;;;;;;;;;;;2115805;28;19930;-44
2022/08/04 01:42:33;;;;;;;;;;;;;;;;;;2116005;28;19923;-46
2022/08/04 01:43:34;;;;;;;;;;;;;;;;;;2115837;28;20367;-44
2022/08/04 01:44:34;;;;;;;;;;;;;;;;;;2116236;28;19928;-44
2022/08/04 01:45:35;;;;;;;;;;;;;;;;;;2115793;28;19930;-44
2022/08/04 01:46:36;;;;;;;;;;;;;;;;;;2115828;28;20373;-44
2022/08/04 01:47:37;;;;;;;;;;;;;;;;;;2116093;28;19984;-46
2022/08/04 01:48:38;;;;;;;;;;;;;;;;;;2115884;28;19931;-46
2022/08/04 01:49:39;;;;;;;;;;;;;;;;;;2116108;28;20425;-45
2022/08/04 01:50:40;;;;;;;;;;;;;;;;;;2115900;28;19935;-44
2022/08/04 01:51:41;;;;;;;;;;;;;;;;;;2115754;28;20296;-46
2022/08/04 01:52:42;;;;;;;;;;;;;;;;;;2116009;28;19930;-44
2022/08/04 01:53:45;;;;;;;;;;;;;;;;;;2115827;28;19947;-44
2022/08/04 01:54:46;;;;;;;;;;;;;;;;;;2116026;28;19924;-46
2022/08/04 01:55:47;;;;;;;;;;;;;;;;;;2115971;28;19924;-46
2022/08/04 01:56:55;;;;;;;;;;;;;;;;;;2115881;28;19930;-45
2022/08/04 01:57:56;;;;;;;;;;;;;;;;;;2115792;28;19923;-46
2022/08/04 01:58:57;;;;;;;;;;;;;;;;;;2115840;28;19923;-46
2022/08/04 01:59:58;;;;;;;;;;;;;;;;;;2115937;28;19928;-47
2022/08/04 02:01:01;;;;;;;;;;;;;;;;;;2115993;28;19981;-47
2022/08/04 02:02:02;;;;;;;;;;;;;;;;;;2115760;28;19928;-46
2022/08/04 02:03:03;;;;;;;;;;;;;;;;;;2115740;28;19930;-47
2022/08/04 02:04:04;;;;;;;;;;;;;;;;;;2115646;28;20431;-47
2022/08/04 02:05:22;;;;;;;;;;;;;;;;;;2116133;28;19967;-45
2022/08/04 02:06:23;;;;;;;;;;;;;;;;;;2115629;28;19924;-44
2022/08/04 02:07:24;;;;;;;;;;;;;;;;;;2115659;28;19928;-45
2022/08/04 02:08:25;;;;;;;;;;;;;;;;;;2115977;28;20045;-45
2022/08/04 02:09:26;;;;;;;;;;;;;;;;;;2115905;28;20256;-44
2022/08/04 02:10:27;;;;;;;;;;;;;;;;;;2115624;28;19988;-45
2022/08/04 02:11:27;;;;;;;;;;;;;;;;;;2111193;28;19924;-45
2022/08/04 02:12:28;;;;;;;;;;;;;;;;;;2107514;28;19980;-45
2022/08/04 02:13:29;;;;;;;;;;;;;;;;;;2107326;28;20264;-45
2022/08/04 02:14:39;;;;;;;;;;;;;;;;;;2107295;28;20017;-45
2022/08/04 02:15:40;;;;;;;;;;;;;;;;;;2107421;28;20002;-45
2022/08/04 02:16:41;;;;;;;;;;;;;;;;;;2107210;28;19959;-44
2022/08/04 02:17:42;;;;;;;;;;;;;;;;;;2107611;28;19971;-45
2022/08/04 02:18:43;;;;;;;;;;;;;;;;;;2107752;28;19930;-47
2022/08/04 02:19:43;;;;;;;;;;;;;;;;;;2107194;28;19981;-44
2022/08/04 02:20:44;;;;;;;;;;;;;;;;;;2107175;28;20434;-46
2022/08/04 02:21:45;;;;;;;;;;;;;;;;;;2107171;28;19934;-45
2022/08/04 02:22:46;;;;;;;;;;;;;;;;;;2107276;28;20112;-44
2022/08/04 02:23:47;;;;;;;;;;;;;;;;;;2112137;28;20010;-44
2022/08/04 02:24:48;;;;;;;;;;;;;;;;;;2115826;28;19924;-46
2022/08/04 02:25:49;;;;;;;;;;;;;;;;;;2115772;28;19977;-45
2022/08/04 02:26:49;;;;;;;;;;;;;;;;;;2115515;28;20517;-46
2022/08/04 02:27:50;;;;;;;;;;;;;;;;;;2115717;28;19927;-45
2022/08/04 02:29:01;;;;;;;;;;;;;;;;;;2115688;28;19934;-45
2022/08/04 02:30:02;;;;;;;;;;;;;;;;;;2115979;28;19927;-47
2022/08/04 02:31:03;;;;;;;;;;;;;;;;;;2115522;28;19928;-46
2022/08/04 02:32:04;;;;;;;;;;;;;;;;;;2115722;28;19999;-46
2022/08/04 02:33:05;;;;;;;;;;;;;;;;;;2115628;28;20076;-46
2022/08/04 02:34:05;;;;;;;;;;;;;;;;;;2115717;28;20014;-46
2022/08/04 02:35:06;;;;;;;;;;;;;;;;;;2115665;28;19924;-46
2022/08/04 02:36:07;;;;;;;;;;;;;;;;;;2115323;28;20014;-46
2022/08/04 02:37:08;;;;;;;;;;;;;;;;;;2115529;28;19924;-46
2022/08/04 02:38:09;;;;;;;;;;;;;;;;;;2115695;28;20006;-47
2022/08/04 02:39:10;;;;;;;;;;;;;;;;;;2115456;28;19997;-46
2022/08/04 02:40:11;;;;;;;;;;;;;;;;;;2115400;28;20006;-47
2022/08/04 02:41:12;;;;;;;;;;;;;;;;;;2115506;28;19931;-46
2022/08/04 02:42:13;;;;;;;;;;;;;;;;;;2115714;28;19973;-44
2022/08/04 02:43:14;;;;;;;;;;;;;;;;;;2115477;28;20077;-44
2022/08/04 02:44:15;;;;;;;;;;;;;;;;;;2115465;28;19938;-44
2022/08/04 02:45:15;;;;;;;;;;;;;;;;;;2115626;28;19924;-45
2022/08/04 02:46:16;;;;;;;;;;;;;;;;;;2115301;28;20292;-44
2022/08/04 02:47:18;;;;;;;;;;;;;;;;;;2115642;28;19946;-44
2022/08/04 02:48:19;;;;;;;;;;;;;;;;;;2115494;28;19924;-44
2022/08/04 02:49:31;;;;;;;;;;;;;;;;;;2115579;28;19977;-45
2022/08/04 02:50:34;;;;;;;;;;;;;;;;;;2115807;28;19953;-46
2022/08/04 02:51:35;;;;;;;;;;;;;;;;;;2115480;28;19966;-47
2022/08/04 02:52:35;;;;;;;;;;;;;;;;;;2115682;28;20011;-46
2022/08/04 02:53:36;;;;;;;;;;;;;;;;;;2115617;28;19946;-46
2022/08/04 02:54:37;;;;;;;;;;;;;;;;;;2115478;28;19959;-46
2022/08/04 02:55:38;;;;;;;;;;;;;;;;;;2115374;28;19957;-46
2022/08/04 02:56:39;;;;;;;;;;;;;;;;;;2115571;28;19923;-46
2022/08/04 02:57:40;;;;;;;;;;;;;;;;;;2115498;28;19974;-47
2022/08/04 02:58:41;;;;;;;;;;;;;;;;;;2115476;28;20283;-48
2022/08/04 02:59:42;;;;;;;;;;;;;;;;;;2115658;28;20040;-45
2022/08/04 03:00:43;;;;;;;;;;;;;;;;;;2115390;28;20000;-44
2022/08/04 03:01:43;;;;;;;;;;;;;;;;;;2115275;28;20291;-44
2022/08/04 03:02:57;;;;;;;;;;;;;;;;;;2115783;28;20002;-46
2022/08/04 03:03:58;;;;;;;;;;;;;;;;;;2115504;28;20026;-46
2022/08/04 03:04:59;;;;;;;;;;;;;;;;;;2115399;28;19924;-46
2022/08/04 03:06:00;;;;;;;;;;;;;;;;;;2115457;28;19963;-46
2022/08/04 03:07:02;;;;;;;;;;;;;;;;;;2115411;28;20373;-46
2022/08/04 03:08:03;;;;;;;;;;;;;;;;;;2115831;28;19924;-45
2022/08/04 03:09:04;;;;;;;;;;;;;;;;;;2115272;28;19935;-44
2022/08/04 03:10:04;;;;;;;;;;;;;;;;;;2115446;28;19962;-44
2022/08/04 03:11:05;;;;;;;;;;;;;;;;;;2113860;28;20000;-44
2022/08/04 03:12:06;;;;;;;;;;;;;;;;;;2106905;28;20248;-45
2022/08/04 03:13:07;;;;;;;;;;;;;;;;;;2106995;28;19931;-44
2022/08/04 03:14:08;;;;;;;;;;;;;;;;;;2106964;28;19931;-47
2022/08/04 03:15:10;;;;;;;;;;;;;;;;;;2107075;28;20369;-48
2022/08/04 03:16:10;;;;;;;;;;;;;;;;;;2106732;28;19928;-46
2022/08/04 03:17:11;;;;;;;;;;;;;;;;;;2107159;28;19924;-46
2022/08/04 03:18:13;;;;;;;;;;;;;;;;;;2106812;28;19977;-46
2022/08/04 03:19:14;;;;;;;;;;;;;;;;;;2106876;28;19934;-47
2022/08/04 03:20:14;;;;;;;;;;;;;;;;;;2113380;28;19936;-47
2022/08/04 03:21:16;;;;;;;;;;;;;;;;;;2115133;28;19924;-47
2022/08/04 03:22:16;;;;;;;;;;;;;;;;;;2115289;28;20031;-46
2022/08/04 03:23:17;;;;;;;;;;;;;;;;;;2115197;28;20518;-46
2022/08/04 03:24:18;;;;;;;;;;;;;;;;;;2115606;28;20015;-46
2022/08/04 03:25:20;;;;;;;;;;;;;;;;;;2115393;28;19927;-44
2022/08/04 03:26:21;;;;;;;;;;;;;;;;;;2115084;28;19928;-45
2022/08/04 03:27:22;;;;;;;;;;;;;;;;;;2115178;28;19998;-45
2022/08/04 03:28:23;;;;;;;;;;;;;;;;;;2115559;28;19996;-46
2022/08/04 03:29:24;;;;;;;;;;;;;;;;;;2115154;28;20072;-46
2022/08/04 03:30:37;;;;;;;;;;;;;;;;;;2115354;28;19931;-46
2022/08/04 03:31:38;;;;;;;;;;;;;;;;;;2115037;28;20018;-47
2022/08/04 03:32:39;;;;;;;;;;;;;;;;;;2115276;28;20174;-46
2022/08/04 03:33:40;;;;;;;;;;;;;;;;;;2115355;28;20455;-46
2022/08/04 03:34:41;;;;;;;;;;;;;;;;;;2115184;28;19924;-46
2022/08/04 03:35:42;;;;;;;;;;;;;;;;;;2115205;28;20117;-46
2022/08/04 03:36:43;;;;;;;;;;;;;;;;;;2115219;28;19924;-47
2022/08/04 03:37:43;;;;;;;;;;;;;;;;;;2115348;28;19967;-48
2022/08/04 03:38:44;;;;;;;;;;;;;;;;;;2115019;28;20040;-48
2022/08/04 03:39:57;;;;;;;;;;;;;;;;;;2115330;28;19931;-47
2022/08/04 03:40:58;;;;;;;;;;;;;;;;;;2115140;28;19950;-47
2022/08/04 03:41:58;;;;;;;;;;;;;;;;;;2115105;28;19967;-45
2022/08/04 03:43:05;;;;;;;;;;;;;;;;;;2115266;28;19924;-46
2022/08/04 03:44:05;;;;;;;;;;;;;;;;;;2115215;28;20368;-47
2022/08/04 03:45:06;;;;;;;;;;;;;;;;;;2115112;28;19923;-46
2022/08/04 03:46:24;;;;;;;;;;;;;;;;;;2115329;28;19924;-46
2022/08/04 03:47:25;;;;;;;;;;;;;;;;;;2114769;28;20448;-46
2022/08/04 03:48:26;;;;;;;;;;;;;;;;;;2114941;28;20014;-46
2022/08/04 03:49:27;;;;;;;;;;;;;;;;;;2115151;28;19931;-46
2022/08/04 03:50:28;;;;;;;;;;;;;;;;;;2115004;28;19986;-46
2022/08/04 03:54:07;;;;;;;;;;;;;;;;;;2115232;28;20424;-48
2022/08/04 03:55:08;;;;;;;;;;;;;;;;;;2115168;28;19963;-46
2022/08/04 03:56:09;;;;;;;;;;;;;;;;;;2114965;28;19973;-47
2022/08/04 03:57:10;;;;;;;;;;;;;;;;;;2115741;28;19989;-45
2022/08/04 03:58:11;;;;;;;;;;;;;;;;;;2115166;28;19928;-45
2022/08/04 03:59:11;;;;;;;;;;;;;;;;;;2115031;28;19974;-44
2022/08/04 04:00:12;;;;;;;;;;;;;;;;;;2115085;28;20297;-43
2022/08/04 04:01:13;;;;;;;;;;;;;;;;;;2115108;28;19927;-44
2022/08/04 04:02:14;;;;;;;;;;;;;;;;;;2114931;28;19924;-46
2022/08/04 04:03:15;;;;;;;;;;;;;;;;;;2114983;28;19924;-46
2022/08/04 04:04:23;;;;;;;;;;;;;;;;;;2115162;28;19953;-46
2022/08/04 04:05:24;;;;;;;;;;;;;;;;;;2115318;28;20004;-44
2022/08/04 04:06:25;;;;;;;;;;;;;;;;;;2115245;28;20014;-48
2022/08/04 04:07:25;;;;;;;;;;;;;;;;;;2114937;28;20401;-45
2022/08/04 04:08:36;;;;;;;;;;;;;;;;;;2115063;28;19924;-46
2022/08/04 04:09:37;;;;;;;;;;;;;;;;;;2114931;28;19970;-46
2022/08/04 04:10:52;;;;;;;;;;;;;;;;;;2114935;28;19965;-46
2022/08/04 04:11:53;;;;;;;;;;;;;;;;;;2106648;28;20365;-46
2022/08/04 04:12:57;;;;;;;;;;;;;;;;;;2106490;28;19924;-46
2022/08/04 04:13:58;;;;;;;;;;;;;;;;;;2106534;28;20389;-46
2022/08/04 04:14:59;;;;;;;;;;;;;;;;;;2106635;28;19924;-44
2022/08/04 04:16:00;;;;;;;;;;;;;;;;;;2109002;28;19927;-45
2022/08/04 04:17:01;;;;;;;;;;;;;;;;;;2114806;28;19928;-46
2022/08/04 04:18:01;;;;;;;;;;;;;;;;;;2114963;28;19959;-44
2022/08/04 04:19:02;;;;;;;;;;;;;;;;;;2114862;28;19958;-44
2022/08/04 04:20:03;;;;;;;;;;;;;;;;;;2114878;28;20375;-45
2022/08/04 04:21:04;;;;;;;;;;;;;;;;;;2114657;28;19928;-44
2022/08/04 04:22:05;;;;;;;;;;;;;;;;;;2114955;28;19931;-45
2022/08/04 04:23:06;;;;;;;;;;;;;;;;;;2114774;28;19924;-45
2022/08/04 04:24:07;;;;;;;;;;;;;;;;;;2115134;28;20015;-43
2022/08/04 04:25:08;;;;;;;;;;;;;;;;;;2114992;28;20003;-44
2022/08/04 04:26:08;;;;;;;;;;;;;;;;;;2115103;28;20262;-44
2022/08/04 04:27:09;;;;;;;;;;;;;;;;;;2114858;28;19928;-43
2022/08/04 04:28:10;;;;;;;;;;;;;;;;;;2114730;28;20392;-43
2022/08/04 04:29:31;;;;;;;;;;;;;;;;;;2115040;28;20309;-45
2022/08/04 04:30:32;;;;;;;;;;;;;;;;;;2114672;28;19924;-47
2022/08/04 04:31:33;;;;;;;;;;;;;;;;;;2115030;28;19924;-45
2022/08/04 04:32:34;;;;;;;;;;;;;;;;;;2114740;28;20385;-46
2022/08/04 04:33:35;;;;;;;;;;;;;;;;;;2114960;28;19934;-46
2022/08/04 04:34:35;;;;;;;;;;;;;;;;;;2115007;28;20068;-43
2022/08/04 04:35:36;;;;;;;;;;;;;;;;;;2115015;28;19924;-44
2022/08/04 04:36:37;;;;;;;;;;;;;;;;;;2115164;28;19931;-44
2022/08/04 04:37:38;;;;;;;;;;;;;;;;;;2114776;28;19981;-43
2022/08/04 04:38:49;;;;;;;;;;;;;;;;;;2114820;28;19932;-45
2022/08/04 04:39:50;;;;;;;;;;;;;;;;;;2114866;28;19928;-46
2022/08/04 04:40:51;;;;;;;;;;;;;;;;;;2115128;28;20014;-43
2022/08/04 04:41:52;;;;;;;;;;;;;;;;;;2115208;28;20349;-43
2022/08/04 04:42:52;;;;;;;;;;;;;;;;;;2114677;28;20284;-44
2022/08/04 04:43:53;;;;;;;;;;;;;;;;;;2114658;28;19924;-44
2022/08/04 04:44:54;;;;;;;;;;;;;;;;;;2114875;28;19923;-44
2022/08/04 04:45:55;;;;;;;;;;;;;;;;;;2114889;28;20299;-45
2022/08/04 04:46:56;;;;;;;;;;;;;;;;;;2114603;28;20296;-45
2022/08/04 04:47:57;;;;;;;;;;;;;;;;;;2114771;28;19927;-44
2022/08/04 04:49:09;;;;;;;;;;;;;;;;;;2114798;28;19946;-44
2022/08/04 04:50:10;;;;;;;;;;;;;;;;;;2114823;28;19934;-44
2022/08/04 04:51:11;;;;;;;;;;;;;;;;;;2114711;28;20019;-44
2022/08/04 04:52:12;;;;;;;;;;;;;;;;;;2114888;28;19931;-44
2022/08/04 04:53:13;;;;;;;;;;;;;;;;;;2114851;28;19955;-44
2022/08/04 04:54:14;;;;;;;;;;;;;;;;;;2114796;28;20330;-45
2022/08/04 04:55:14;;;;;;;;;;;;;;;;;;2114795;28;19924;-47
2022/08/04 04:56:16;;;;;;;;;;;;;;;;;;2114629;28;19923;-46
2022/08/04 04:57:16;;;;;;;;;;;;;;;;;;2114849;28;19961;-47
2022/08/04 04:58:17;;;;;;;;;;;;;;;;;;2114725;28;19928;-46
2022/08/04 04:59:18;;;;;;;;;;;;;;;;;;2114048;28;20019;-47
2022/08/04 05:00:19;;;;;;;;;;;;;;;;;;2114579;28;19955;-47
2022/08/04 05:01:20;;;;;;;;;;;;;;;;;;2114926;28;20293;-46
2022/08/04 05:02:21;;;;;;;;;;;;;;;;;;2114613;28;20018;-47
2022/08/04 05:03:22;;;;;;;;;;;;;;;;;;2114627;28;20018;-46
2022/08/04 05:04:23;;;;;;;;;;;;;;;;;;2114755;28;19924;-46
2022/08/04 05:05:23;;;;;;;;;;;;;;;;;;2114636;28;20384;-46
2022/08/04 05:06:24;;;;;;;;;;;;;;;;;;2114489;28;19923;-46
2022/08/04 05:07:25;;;;;;;;;;;;;;;;;;2114576;28;19923;-47
2022/08/04 05:08:26;;;;;;;;;;;;;;;;;;2114648;28;19923;-47
2022/08/04 05:09:44;;;;;;;;;;;;;;;;;;2114728;28;19959;-47
2022/08/04 05:10:45;;;;;;;;;;;;;;;;;;2115158;28;19924;-48
2022/08/04 05:11:45;;;;;;;;;;;;;;;;;;2107644;28;20337;-44
2022/08/04 05:12:46;;;;;;;;;;;;;;;;;;2113005;28;19969;-44
2022/08/04 05:14:07;;;;;;;;;;;;;;;;;;2114565;28;19931;-45
2022/08/04 05:15:28;;;;;;;;;;;;;;;;;;2115047;28;19923;-46
2022/08/04 05:16:29;;;;;;;;;;;;;;;;;;2114366;28;19924;-47
2022/08/04 05:17:30;;;;;;;;;;;;;;;;;;2114747;28;19940;-45
2022/08/04 05:18:31;;;;;;;;;;;;;;;;;;2114766;28;20022;-44
2022/08/04 05:19:32;;;;;;;;;;;;;;;;;;2114397;28;19923;-45
2022/08/04 05:20:32;;;;;;;;;;;;;;;;;;2114682;28;19965;-46
2022/08/04 05:21:33;;;;;;;;;;;;;;;;;;2114736;28;20006;-45
2022/08/04 05:22:34;;;;;;;;;;;;;;;;;;2114743;28;19924;-46
2022/08/04 05:23:35;;;;;;;;;;;;;;;;;;2114658;28;19928;-46
2022/08/04 05:24:36;;;;;;;;;;;;;;;;;;2114520;28;19923;-46
2022/08/04 05:25:37;;;;;;;;;;;;;;;;;;2114397;28;19976;-48
2022/08/04 05:26:38;;;;;;;;;;;;;;;;;;2114517;28;20023;-47
2022/08/04 05:27:39;;;;;;;;;;;;;;;;;;2114709;28;19935;-45
2022/08/04 05:28:40;;;;;;;;;;;;;;;;;;2114428;28;19927;-46
2022/08/04 05:29:41;;;;;;;;;;;;;;;;;;2114650;28;19923;-46
2022/08/04 05:30:47;;;;;;;;;;;;;;;;;;2114423;28;20451;-47
2022/08/04 05:31:48;;;;;;;;;;;;;;;;;;2114783;28;19946;-44
2022/08/04 05:32:49;;;;;;;;;;;;;;;;;;2114403;28;20022;-44
2022/08/04 05:33:50;;;;;;;;;;;;;;;;;;2114740;28;20014;-46
2022/08/04 05:34:51;;;;;;;;;;;;;;;;;;2114633;28;20022;-47
2022/08/04 05:35:52;;;;;;;;;;;;;;;;;;2114426;28;20010;-47
2022/08/04 05:37:13;;;;;;;;;;;;;;;;;;2114463;28;19947;-47
2022/08/04 05:38:13;;;;;;;;;;;;;;;;;;2114595;28;20273;-46
2022/08/04 05:39:15;;;;;;;;;;;;;;;;;;2114333;28;19924;-48
2022/08/04 05:40:16;;;;;;;;;;;;;;;;;;2114447;28;19927;-46
2022/08/04 05:41:17;;;;;;;;;;;;;;;;;;2114510;28;20292;-46
2022/08/04 05:42:18;;;;;;;;;;;;;;;;;;2114438;28;20348;-47
2022/08/04 05:43:19;;;;;;;;;;;;;;;;;;2114724;28;19924;-44
2022/08/04 05:44:19;;;;;;;;;;;;;;;;;;2114605;28;19924;-44
2022/08/04 05:45:20;;;;;;;;;;;;;;;;;;2114692;28;19928;-45
2022/08/04 05:46:21;;;;;;;;;;;;;;;;;;2114489;28;19967;-46
2022/08/04 05:47:22;;;;;;;;;;;;;;;;;;2114470;28;20022;-44
2022/08/04 05:48:23;;;;;;;;;;;;;;;;;;2114530;28;19969;-45
2022/08/04 05:49:24;;;;;;;;;;;;;;;;;;2114255;28;19928;-45
2022/08/04 05:50:25;;;;;;;;;;;;;;;;;;2115107;28;19931;-46
2022/08/04 05:51:26;;;;;;;;;;;;;;;;;;2114572;28;20362;-45
2022/08/04 05:52:27;;;;;;;;;;;;;;;;;;2114835;28;20053;-46
2022/08/04 05:53:28;;;;;;;;;;;;;;;;;;2114589;28;19923;-47
2022/08/04 05:54:28;;;;;;;;;;;;;;;;;;2114684;28;20018;-46
2022/08/04 05:55:29;;;;;;;;;;;;;;;;;;2114564;28;20008;-50
2022/08/04 05:56:49;;;;;;;;;;;;;;;;;;2114421;28;20019;-46
2022/08/04 05:57:50;;;;;;;;;;;;;;;;;;2114355;28;20441;-46
2022/08/04 05:58:56;;;;;;;;;;;;;;;;;;2114373;28;19924;-47
2022/08/04 05:59:56;;;;;;;;;;;;;;;;;;2114308;28;19973;-47
2022/08/04 06:00:57;;;;;;;;;;;;;;;;;;2114490;28;19924;-44
2022/08/04 06:01:58;;;;;;;;;;;;;;;;;;2114175;28;19927;-44
2022/08/04 06:02:59;;;;;;;;;;;;;;;;;;2114770;28;20363;-45
2022/08/04 06:04:00;;;;;;;;;;;;;;;;;;2114491;28;20073;-44
2022/08/04 06:05:01;;;;;;;;;;;;;;;;;;2114245;28;19935;-44
2022/08/04 06:06:02;;;;;;;;;;;;;;;;;;2114328;28;19963;-44
2022/08/04 06:07:03;;;;;;;;;;;;;;;;;;2114430;28;19924;-44
2022/08/04 06:08:04;;;;;;;;;;;;;;;;;;2114254;28;20385;-45
2022/08/04 06:09:14;;;;;;;;;;;;;;;;;;2106335;28;19931;-45
2022/08/04 06:10:15;;;;;;;;;;;;;;;;;;2113019;28;19923;-44
2022/08/04 06:11:16;;;;;;;;;;;;;;;;;;2112661;28;20007;-44
2022/08/04 06:12:17;;;;;;;;;;;;;;;;;;2107484;28;20041;-47
2022/08/04 06:13:18;;;;;;;;;;;;;;;;;;2107626;28;20019;-44
2022/08/04 06:14:39;;;;;;;;;;;;;;;;;;2107605;28;19932;-47
2022/08/04 06:15:40;;;;;;;;;;;;;;;;;;2107728;28;19924;-45
2022/08/04 06:16:41;;;;;;;;;;;;;;;;;;2107239;28;19971;-44
2022/08/04 06:17:42;;;;;;;;;;;;;;;;;;2107476;28;20500;-44
2022/08/04 06:19:04;;;;;;;;;;;;;;;;;;2107317;28;19924;-45
2022/08/04 06:20:25;;;;;;;;;;;;;;;;;;2107387;28;19930;-46
2022/08/04 06:21:26;;;;;;;;;;;;;;;;;;2107338;28;19931;-46
2022/08/04 06:22:27;;;;;;;;;;;;;;;;;;2107450;28;19963;-47
2022/08/04 06:23:28;;;;;;;;;;;;;;;;;;2107149;28;20037;-47
2022/08/04 06:24:30;;;;;;;;;;;;;;;;;;2107200;28;20445;-44
2022/08/04 06:25:30;;;;;;;;;;;;;;;;;;2107662;28;19924;-46
2022/08/04 06:26:31;;;;;;;;;;;;;;;;;;2107054;28;19955;-47
2022/08/04 06:27:32;;;;;;;;;;;;;;;;;;2111313;28;20053;-47
2022/08/04 06:28:33;;;;;;;;;;;;;;;;;;2115740;28;19968;-47
2022/08/04 06:29:37;;;;;;;;;;;;;;;;;;2115514;28;20426;-47
2022/08/04 06:30:38;;;;;;;;;;;;;;;;;;2115764;28;20000;-46
2022/08/04 06:31:42;;;;;;;;;;;;;;;;;;2115752;28;20375;-44
2022/08/04 06:33:12;;;;;;;;;;;;;;;;;;2115560;28;19928;-44
2022/08/04 06:34:13;;;;;;;;;;;;;;;;;;2115788;28;20026;-45
2022/08/04 06:35:14;;;;;;;;;;;;;;;;;;2116288;28;19923;-47
2022/08/04 06:36:15;;;;;;;;;;;;;;;;;;2115683;28;20014;-47
2022/08/04 06:37:16;;;;;;;;;;;;;;;;;;2115774;28;20427;-46
2022/08/04 06:38:37;;;;;;;;;;;;;;;;;;2115849;28;19931;-47
2022/08/04 06:39:37;;;;;;;;;;;;;;;;;;2115630;28;19924;-46
2022/08/04 06:40:38;;;;;;;;;;;;;;;;;;2115537;28;19972;-47
2022/08/04 06:41:39;;;;;;;;;;;;;;;;;;2115515;28;19927;-47
2022/08/04 06:43:01;;;;;;;;;;;;;;;;;;2115718;28;19924;-47
2022/08/04 06:44:01;;;;;;;;;;;;;;;;;;2115837;28;20014;-45
2022/08/04 06:45:02;;;;;;;;;;;;;;;;;;2115509;28;19928;-43
2022/08/04 06:46:03;;;;;;;;;;;;;;;;;;2115450;28;19923;-44
2022/08/04 06:47:04;;;;;;;;;;;;;;;;;;2115517;28;20192;-44
2022/08/04 06:48:05;;;;;;;;;;;;;;;;;;2115591;28;20002;-44
2022/08/04 06:49:06;;;;;;;;;;;;;;;;;;2115824;28;19931;-44
2022/08/04 06:50:07;;;;;;;;;;;;;;;;;;2115635;28;20296;-45
2022/08/04 06:51:28;;;;;;;;;;;;;;;;;;2115518;28;19924;-46
2022/08/04 06:52:39;;;;;;;;;;;;;;;;;;2115649;28;20281;-48
2022/08/04 06:53:40;;;;;;;;;;;;;;;;;;2115762;28;19924;-47
2022/08/04 06:54:41;;;;;;;;;;;;;;;;;;2115635;28;20150;-47
2022/08/04 06:55:42;;;;;;;;;;;;;;;;;;2115658;28;19934;-47
2022/08/04 06:56:42;;;;;;;;;;;;;;;;;;2115736;28;20014;-48
2022/08/04 06:57:44;;;;;;;;;;;;;;;;;;2115960;28;19924;-47
2022/08/04 06:58:44;;;;;;;;;;;;;;;;;;2115616;28;19931;-47
2022/08/04 06:59:45;;;;;;;;;;;;;;;;;;2115371;28;19923;-47
2022/08/04 07:00:46;;;;;;;;;;;;;;;;;;2115895;28;20015;-44
2022/08/04 07:01:47;;;;;;;;;;;;;;;;;;2115434;28;20390;-44
2022/08/04 07:02:48;;;;;;;;;;;;;;;;;;2115585;28;19941;-47
2022/08/04 07:03:49;;;;;;;;;;;;;;;;;;2115543;28;20276;-46
2022/08/04 07:04:51;;;;;;;;;;;;;;;;;;2115363;28;20308;-44
2022/08/04 07:05:52;;;;;;;;;;;;;;;;;;2115222;28;19927;-44
2022/08/04 07:06:52;;;;;;;;;;;;;;;;;;2115385;28;19924;-44
2022/08/04 07:07:53;;;;;;;;;;;;;;;;;;2115386;28;19927;-45